Time;durP1;ratioP1;P1;durP2;ratioP2;P2;SDS_P1;SDS_P2;PMS_P1;PMS_P2;Temp;Humidity;BMP_temperature;BMP_pressure;BME280_temperature;BME280_humidity;BME280_pressure;Samples;Min_cycle;Max_cycle;Signal;HPM_P1;HPM_P2
2022/08/10 00:01:10;;;;;;;;;;;17.00;99.90;;;;;;5082157;27;19973;-83
2022/08/10 00:03:36;;;;;;;;;;;17.00;99.90;;;;;;5096847;27;19980;-83
2022/08/10 00:06:01;;;;;;;;;;;16.90;99.90;;;;;;5100545;28;20034;-83
2022/08/10 00:08:28;;;;;;;;;;;17.00;99.90;;;;;;5081937;27;19931;-83
2022/08/10 00:10:54;;;;;;;;;;;17.00;99.90;;;;;;5119850;27;19923;-83
2022/08/10 00:13:20;;;;;;;;;;;17.00;99.90;;;;;;5112497;27;20344;-84
2022/08/10 00:15:46;;;;;;;;;;;17.00;99.90;;;;;;5111809;28;19985;-83
2022/08/10 00:18:11;;;;;;;;;;;17.00;99.90;;;;;;5104510;28;19924;-84
2022/08/10 00:20:37;;;;;;;;;;;17.00;99.90;;;;;;5108369;28;19924;-83
2022/08/10 00:23:02;;;;;;;;;;;16.90;99.90;;;;;;5099723;28;20383;-82
2022/08/10 00:25:28;;;;;;;;;;;16.90;99.90;;;;;;5114683;27;20015;-83
2022/08/10 00:27:54;;;;;;;;;;;16.90;99.90;;;;;;5119396;27;19930;-83
2022/08/10 00:30:19;;;;;;;;;;;16.90;99.90;;;;;;5119332;28;20287;-83
2022/08/10 00:32:45;;;;;;;;;;;16.90;99.90;;;;;;5100117;28;19923;-83
2022/08/10 00:35:11;;;;;;;;;;;16.80;99.90;;;;;;5090341;28;19946;-83
2022/08/10 00:37:36;;;;;;;;;;;16.90;99.90;;;;;;5099559;27;20367;-83
2022/08/10 00:40:03;;;;;;;;;;;16.90;99.90;;;;;;5103808;27;20019;-83
2022/08/10 00:42:28;;;;;;;;;;;16.80;99.90;;;;;;5122470;27;19924;-82
2022/08/10 00:44:54;;;;;;;;;;;16.80;99.90;;;;;;5084090;27;19923;-83
2022/08/10 00:47:20;;;;;;;;;;;16.80;99.90;;;;;;5102434;27;19974;-83
2022/08/10 00:49:46;;;;;;;;;;;16.80;99.90;;;;;;5087368;28;20510;-82
2022/08/10 00:52:12;;;;;;;;;;;16.70;99.90;;;;;;5082057;28;19924;-83
2022/08/10 00:54:39;;;;;;;;;;;16.70;99.90;;;;;;5065162;28;19923;-83
2022/08/10 00:57:05;;;;;;;;;;;16.70;99.90;;;;;;5101797;27;19924;-83
2022/08/10 00:59:31;;;;;;;;;;;16.70;99.90;;;;;;5115613;28;19973;-83
2022/08/10 01:01:57;;;;;;;;;;;16.60;99.90;;;;;;5081948;28;19928;-83
2022/08/10 01:04:22;;;;;;;;;;;16.70;99.90;;;;;;5081846;28;19984;-83
2022/08/10 01:06:48;;;;;;;;;;;16.70;99.90;;;;;;5100059;28;19924;-83
2022/08/10 01:09:25;;;;;;;;;;;16.70;99.90;;;;;;5132453;27;19924;-83
2022/08/10 01:11:53;;;;;;;;;;;16.70;99.90;;;;;;5081578;28;19924;-83
2022/08/10 01:14:28;;;;;;;;;;;16.60;99.90;;;;;;5098037;28;19924;-83
2022/08/10 01:17:26;;;;;;;;;;;16.60;99.90;;;;;;5091539;27;20014;-83
2022/08/10 01:19:56;;;;;;;;;;;16.60;99.90;;;;;;5063363;27;19963;-83
2022/08/10 01:22:37;;;;;;;;;;;16.50;99.90;;;;;;5102060;27;20056;-83
2022/08/10 01:25:03;;;;;;;;;;;16.50;99.90;;;;;;5118314;27;19972;-83
2022/08/10 01:27:42;;;;;;;;;;;16.40;99.90;;;;;;5089260;27;19923;-83
2022/08/10 01:30:08;;;;;;;;;;;16.30;99.90;;;;;;5101250;27;19931;-83
2022/08/10 01:32:52;;;;;;;;;;;16.30;99.90;;;;;;5101829;27;19930;-82
2022/08/10 01:35:30;;;;;;;;;;;16.10;99.90;;;;;;5095662;28;20283;-82
2022/08/10 01:37:56;;;;;;;;;;;16.10;99.90;;;;;;5120445;27;20387;-83
2022/08/10 01:40:24;;;;;;;;;;;16.00;99.90;;;;;;5098078;28;19930;-83
2022/08/10 01:42:51;;;;;;;;;;;15.90;99.90;;;;;;5115455;28;19973;-83
2022/08/10 01:45:18;;;;;;;;;;;16.00;99.90;;;;;;5115730;27;19967;-83
2022/08/10 01:50:29;;;;;;;;;;;15.90;99.90;;;;;;5117753;27;19974;-83
2022/08/10 01:52:57;;;;;;;;;;;16.00;99.90;;;;;;5118334;27;19930;-83
2022/08/10 01:55:23;;;;;;;;;;;16.00;99.90;;;;;;5117838;27;19931;-83
2022/08/10 01:57:49;;;;;;;;;;;16.00;99.90;;;;;;5089558;27;19927;-83
2022/08/10 02:00:15;;;;;;;;;;;16.00;99.90;;;;;;5084135;27;19923;-83
2022/08/10 02:02:42;;;;;;;;;;;16.00;99.90;;;;;;5101067;27;19976;-82
2022/08/10 02:05:08;;;;;;;;;;;16.10;99.90;;;;;;5084379;27;19930;-82
2022/08/10 02:07:34;;;;;;;;;;;16.10;99.90;;;;;;5117848;27;19962;-83
2022/08/10 02:10:02;;;;;;;;;;;16.10;99.90;;;;;;5121435;27;19923;-82
2022/08/10 02:12:29;;;;;;;;;;;16.10;99.90;;;;;;5137939;27;20367;-83
2022/08/10 02:15:00;;;;;;;;;;;16.10;99.90;;;;;;5138289;27;20337;-82
2022/08/10 02:17:29;;;;;;;;;;;16.10;99.90;;;;;;5126787;27;20375;-83
2022/08/10 02:19:57;;;;;;;;;;;16.10;99.90;;;;;;5080420;28;19963;-83
2022/08/10 02:22:23;;;;;;;;;;;16.10;99.90;;;;;;5097180;28;19924;-82
2022/08/10 02:24:50;;;;;;;;;;;16.00;99.90;;;;;;5080070;28;19932;-82
2022/08/10 02:27:15;;;;;;;;;;;16.00;99.90;;;;;;5079869;28;19923;-83
2022/08/10 02:29:42;;;;;;;;;;;16.10;99.90;;;;;;5090919;28;19923;-83
2022/08/10 02:32:08;;;;;;;;;;;16.00;99.90;;;;;;5097107;28;19924;-84
2022/08/10 02:34:36;;;;;;;;;;;16.00;99.90;;;;;;5079531;28;19984;-83
2022/08/10 02:37:02;;;;;;;;;;;16.00;99.90;;;;;;5097148;28;20356;-83
2022/08/10 02:39:29;;;;;;;;;;;16.00;99.90;;;;;;5086113;28;19970;-83
2022/08/10 02:41:57;;;;;;;;;;;16.00;99.90;;;;;;5063137;28;20014;-83
2022/08/10 02:44:23;;;;;;;;;;;16.00;99.90;;;;;;5079860;28;20390;-83
2022/08/10 02:46:54;;;;;;;;;;;16.00;99.90;;;;;;5113795;28;19959;-82
2022/08/10 02:49:27;;;;;;;;;;;16.00;99.90;;;;;;5107763;27;20435;-83
2022/08/10 02:52:03;;;;;;;;;;;16.00;99.90;;;;;;5097051;28;20018;-83
2022/08/10 02:54:31;;;;;;;;;;;15.90;99.90;;;;;;5079533;28;19970;-83
2022/08/10 02:57:15;;;;;;;;;;;15.90;99.90;;;;;;5096848;28;19934;-83
2022/08/10 02:59:45;;;;;;;;;;;15.90;99.90;;;;;;5109222;27;19923;-83
2022/08/10 03:02:14;;;;;;;;;;;15.90;99.90;;;;;;5136639;27;20358;-82
2022/08/10 03:04:45;;;;;;;;;;;15.90;99.90;;;;;;5137394;27;19977;-82
2022/08/10 03:07:12;;;;;;;;;;;15.90;99.90;;;;;;5137538;27;19923;-83
2022/08/10 03:09:39;;;;;;;;;;;15.90;99.90;;;;;;5130534;27;19927;-83
2022/08/10 03:12:07;;;;;;;;;;;16.00;99.90;;;;;;5099948;27;19923;-83
2022/08/10 03:14:34;;;;;;;;;;;16.00;99.90;;;;;;5116438;27;19984;-83
2022/08/10 03:17:01;;;;;;;;;;;16.00;99.90;;;;;;5116829;27;19924;-82
2022/08/10 03:19:27;;;;;;;;;;;16.00;99.90;;;;;;5116563;27;19935;-83
2022/08/10 03:21:53;;;;;;;;;;;16.00;99.90;;;;;;5080957;28;19924;-82
2022/08/10 03:24:21;;;;;;;;;;;16.00;99.90;;;;;;5095770;28;19924;-82
2022/08/10 03:26:51;;;;;;;;;;;16.00;99.90;;;;;;5092122;27;20010;-83
2022/08/10 03:29:20;;;;;;;;;;;16.00;99.90;;;;;;5103033;27;19927;-83
2022/08/10 03:31:47;;;;;;;;;;;16.00;99.90;;;;;;5112890;27;20448;-83
2022/08/10 03:34:14;;;;;;;;;;;16.00;99.90;;;;;;5096985;28;19969;-82
2022/08/10 03:36:40;;;;;;;;;;;16.00;99.90;;;;;;5105243;27;19978;-84
2022/08/10 03:39:05;;;;;;;;;;;16.00;99.90;;;;;;5119789;27;19970;-83
2022/08/10 03:41:42;;;;;;;;;;;16.00;99.90;;;;;;5119502;27;19923;-83
2022/08/10 03:44:09;;;;;;;;;;;16.00;99.90;;;;;;5136986;27;19931;-82
2022/08/10 03:46:37;;;;;;;;;;;16.10;99.90;;;;;;5123175;28;19931;-83
2022/08/10 03:49:04;;;;;;;;;;;16.10;99.90;;;;;;5096122;28;19973;-83
2022/08/10 03:51:31;;;;;;;;;;;16.10;99.90;;;;;;5079920;27;19978;-83
2022/08/10 03:53:57;;;;;;;;;;;16.10;99.90;;;;;;5100253;28;20387;-83
2022/08/10 03:56:23;;;;;;;;;;;16.10;99.90;;;;;;5078905;28;19972;-82
2022/08/10 03:58:49;;;;;;;;;;;16.10;99.90;;;;;;5095459;28;19924;-83
2022/08/10 04:01:14;;;;;;;;;;;16.10;99.90;;;;;;5095858;28;19931;-83
2022/08/10 04:03:40;;;;;;;;;;;16.10;99.90;;;;;;5062124;28;19931;-83
2022/08/10 04:06:06;;;;;;;;;;;16.10;99.90;;;;;;5095442;28;19928;-83
2022/08/10 04:08:32;;;;;;;;;;;16.10;99.90;;;;;;5095831;28;19930;-83
2022/08/10 04:10:57;;;;;;;;;;;16.10;99.90;;;;;;5107966;28;20012;-82
2022/08/10 04:13:23;;;;;;;;;;;16.10;99.90;;;;;;5081502;27;19985;-84
2022/08/10 04:15:48;;;;;;;;;;;16.10;99.90;;;;;;5105790;27;20268;-83
2022/08/10 04:18:14;;;;;;;;;;;16.10;99.90;;;;;;5101048;27;19924;-83
2022/08/10 04:20:43;;;;;;;;;;;16.10;99.90;;;;;;5119623;27;19924;-83
2022/08/10 04:23:14;;;;;;;;;;;16.10;99.90;;;;;;5119884;27;19929;-83
2022/08/10 04:25:40;;;;;;;;;;;16.10;99.90;;;;;;5097932;28;19924;-83
2022/08/10 04:28:06;;;;;;;;;;;16.10;99.90;;;;;;5088241;27;19984;-83
2022/08/10 04:30:34;;;;;;;;;;;16.10;99.90;;;;;;5102582;27;19930;-83
2022/08/10 04:33:01;;;;;;;;;;;16.20;99.90;;;;;;5119584;27;19976;-82
2022/08/10 04:35:27;;;;;;;;;;;16.20;99.90;;;;;;5112438;28;20098;-83
2022/08/10 04:37:54;;;;;;;;;;;16.20;99.90;;;;;;5098997;28;19946;-84
2022/08/10 04:40:20;;;;;;;;;;;16.20;99.90;;;;;;5099975;28;20018;-83
2022/08/10 04:42:46;;;;;;;;;;;16.20;99.90;;;;;;5092825;27;20015;-83
2022/08/10 04:45:12;;;;;;;;;;;16.20;99.90;;;;;;5102470;27;19979;-83
2022/08/10 04:47:38;;;;;;;;;;;16.20;99.90;;;;;;5119508;27;19929;-83
2022/08/10 04:50:04;;;;;;;;;;;16.20;99.90;;;;;;5088104;28;19924;-82
2022/08/10 04:52:29;;;;;;;;;;;16.20;99.90;;;;;;5099070;28;19923;-83
2022/08/10 04:54:55;;;;;;;;;;;16.20;99.90;;;;;;5113465;28;20425;-83
2022/08/10 04:57:21;;;;;;;;;;;16.20;99.90;;;;;;5100909;28;19969;-83
2022/08/10 04:59:46;;;;;;;;;;;16.30;99.90;;;;;;5103762;28;19935;-83
2022/08/10 05:02:12;;;;;;;;;;;16.30;99.90;;;;;;5081744;28;19943;-83
2022/08/10 05:04:37;;;;;;;;;;;16.30;99.90;;;;;;5081870;28;19923;-83
2022/08/10 05:07:07;;;;;;;;;;;16.30;99.90;;;;;;5082003;28;19974;-83
2022/08/10 05:09:32;;;;;;;;;;;16.40;99.90;;;;;;5099646;27;20380;-83
2022/08/10 05:11:58;;;;;;;;;;;16.30;99.90;;;;;;5100621;28;19967;-83
2022/08/10 05:14:24;;;;;;;;;;;16.40;99.90;;;;;;5115328;28;19923;-82
2022/08/10 05:16:49;;;;;;;;;;;16.50;99.90;;;;;;5098497;28;20284;-83
2022/08/10 05:19:15;;;;;;;;;;;16.50;99.90;;;;;;5115708;28;19993;-83
2022/08/10 05:21:40;;;;;;;;;;;16.50;99.90;;;;;;5099488;28;19972;-83
2022/08/10 05:24:06;;;;;;;;;;;16.50;99.90;;;;;;5084686;28;20030;-83
2022/08/10 05:26:31;;;;;;;;;;;16.60;99.90;;;;;;5098509;28;19930;-82
2022/08/10 05:28:57;;;;;;;;;;;16.60;99.90;;;;;;5098240;28;19923;-83
2022/08/10 05:31:23;;;;;;;;;;;16.70;99.90;;;;;;5098157;28;19931;-83
2022/08/10 05:33:48;;;;;;;;;;;16.70;99.90;;;;;;5114803;28;19924;-83
2022/08/10 05:36:14;;;;;;;;;;;16.80;99.90;;;;;;5115309;28;20249;-83
2022/08/10 05:38:41;;;;;;;;;;;16.90;99.90;;;;;;5097718;28;19973;-83
2022/08/10 05:41:07;;;;;;;;;;;16.90;99.90;;;;;;5098342;28;19989;-83
2022/08/10 05:43:32;;;;;;;;;;;17.00;99.90;;;;;;5115197;28;20333;-83
2022/08/10 05:45:58;;;;;;;;;;;17.10;99.90;;;;;;5114975;28;20399;-83
2022/08/10 05:48:23;;;;;;;;;;;17.10;99.90;;;;;;5083788;28;19928;-83
2022/08/10 05:50:49;;;;;;;;;;;17.20;99.90;;;;;;5094472;28;19975;-83
2022/08/10 05:53:15;;;;;;;;;;;17.30;99.90;;;;;;5077767;28;20417;-83
2022/08/10 05:55:40;;;;;;;;;;;17.30;99.90;;;;;;5077258;28;20023;-86
2022/08/10 05:58:06;;;;;;;;;;;17.40;99.90;;;;;;5098463;27;19928;-83
2022/08/10 06:00:32;;;;;;;;;;;17.40;99.90;;;;;;5085110;28;19938;-84
2022/08/10 06:03:00;;;;;;;;;;;17.50;99.90;;;;;;5093392;28;19924;-83
2022/08/10 06:05:30;;;;;;;;;;;17.60;99.90;;;;;;5114708;28;19924;-82
2022/08/10 06:08:00;;;;;;;;;;;17.70;99.90;;;;;;5104975;28;20113;-85
2022/08/10 06:10:30;;;;;;;;;;;17.80;99.90;;;;;;5088630;28;19927;-84
2022/08/10 06:15:42;;;;;;;;;;;17.90;99.90;;;;;;5095233;28;19985;-84
2022/08/10 06:18:08;;;;;;;;;;;18.00;99.90;;;;;;5102402;28;19951;-85
2022/08/10 06:20:34;;;;;;;;;;;18.10;99.90;;;;;;5094089;28;19928;-83
2022/08/10 06:23:00;;;;;;;;;;;18.20;99.90;;;;;;5077007;28;19924;-85
2022/08/10 06:25:29;;;;;;;;;;;18.30;99.90;;;;;;5077128;28;19975;-84
2022/08/10 06:27:56;;;;;;;;;;;18.40;99.90;;;;;;5100528;28;19978;-85
2022/08/10 06:30:22;;;;;;;;;;;18.40;99.90;;;;;;5096484;28;19982;-85
2022/08/10 06:32:50;;;;;;;;;;;18.50;99.90;;;;;;5084675;28;19924;-85
2022/08/10 06:35:16;;;;;;;;;;;18.60;99.90;;;;;;5113462;28;19924;-86
2022/08/10 06:37:43;;;;;;;;;;;18.60;99.90;;;;;;5113843;28;19923;-84
2022/08/10 06:40:08;;;;;;;;;;;18.70;99.90;;;;;;5095041;28;19923;-83
2022/08/10 06:42:36;;;;;;;;;;;18.70;99.90;;;;;;5072754;28;19996;-84
2022/08/10 06:45:04;;;;;;;;;;;18.80;99.90;;;;;;5087629;28;19924;-85
2022/08/10 06:47:38;;;;;;;;;;;18.80;99.90;;;;;;5107693;28;19924;-84
2022/08/10 06:50:09;;;;;;;;;;;18.90;99.90;;;;;;5105032;28;19924;-84
2022/08/10 06:52:36;;;;;;;;;;;19.00;99.90;;;;;;5093132;28;19924;-84
2022/08/10 06:55:01;;;;;;;;;;;19.10;99.90;;;;;;5092908;28;19988;-84
2022/08/10 06:57:29;;;;;;;;;;;19.20;99.90;;;;;;5097181;27;20020;-84
2022/08/10 06:59:56;;;;;;;;;;;19.30;99.90;;;;;;5094517;28;20336;-85
2022/08/10 07:02:28;;;;;;;;;;;19.30;99.90;;;;;;5088199;28;19946;-84
2022/08/10 07:04:58;;;;;;;;;;;19.40;99.90;;;;;;5095735;28;19947;-85
2022/08/10 07:07:26;;;;;;;;;;;19.50;99.90;;;;;;5075899;28;20322;-84
2022/08/10 07:09:51;;;;;;;;;;;19.60;99.90;;;;;;5108725;28;19924;-84
2022/08/10 07:12:19;;;;;;;;;;;19.60;99.90;;;;;;5076304;28;19931;-84
2022/08/10 07:14:45;;;;;;;;;;;19.80;99.90;;;;;;5126948;27;19978;-85
2022/08/10 07:17:15;;;;;;;;;;;20.00;99.90;;;;;;5065250;28;20349;-84
2022/08/10 07:19:42;;;;;;;;;;;20.10;99.90;;;;;;5099930;28;19928;-84
2022/08/10 07:22:09;;;;;;;;;;;20.10;99.90;;;;;;5076008;28;20014;-84
2022/08/10 07:24:35;;;;;;;;;;;20.20;99.90;;;;;;5058936;28;19968;-84
2022/08/10 07:27:02;;;;;;;;;;;20.20;99.90;;;;;;5078214;28;20090;-84
2022/08/10 07:29:30;;;;;;;;;;;20.30;99.90;;;;;;5126381;27;19924;-84
2022/08/10 07:31:57;;;;;;;;;;;20.30;99.90;;;;;;5092610;28;19946;-85
2022/08/10 07:34:24;;;;;;;;;;;20.40;99.90;;;;;;5078624;28;20379;-84
2022/08/10 07:36:51;;;;;;;;;;;20.50;99.90;;;;;;5112245;28;20006;-84
2022/08/10 07:39:18;;;;;;;;;;;20.50;99.90;;;;;;5089188;28;20010;-85
2022/08/10 07:41:45;;;;;;;;;;;20.60;99.90;;;;;;5092753;28;19924;-84
2022/08/10 07:44:11;;;;;;;;;;;20.60;99.90;;;;;;5126074;27;19924;-84
2022/08/10 07:46:37;;;;;;;;;;;20.60;99.90;;;;;;5094638;28;19928;-84
2022/08/10 07:49:08;;;;;;;;;;;20.80;99.90;;;;;;5074896;28;19924;-89
2022/08/10 07:51:35;;;;;;;;;;;20.80;99.90;;;;;;5086132;28;20012;-85
2022/08/10 07:54:04;;;;;;;;;;;20.90;99.90;;;;;;5097564;28;19924;-85
2022/08/10 07:56:31;;;;;;;;;;;21.00;99.90;;;;;;5096564;28;20396;-87
2022/08/10 07:59:03;;;;;;;;;;;21.00;99.90;;;;;;5107514;28;19977;-85
2022/08/10 08:01:31;;;;;;;;;;;21.10;99.90;;;;;;5092488;28;20287;-85
2022/08/10 08:03:58;;;;;;;;;;;21.10;99.90;;;;;;5092295;28;20336;-86
2022/08/10 08:06:24;;;;;;;;;;;21.20;99.90;;;;;;5075536;28;19975;-85
2022/08/10 08:08:49;;;;;;;;;;;21.30;99.90;;;;;;5079996;28;19959;-87
2022/08/10 08:11:15;;;;;;;;;;;21.40;99.90;;;;;;5104542;28;19924;-91
2022/08/10 08:13:42;;;;;;;;;;;21.40;99.90;;;;;;5089214;28;19924;-90
2022/08/10 08:16:08;;;;;;;;;;;21.40;99.90;;;;;;5076149;28;19924;-85
2022/08/10 08:18:35;;;;;;;;;;;21.50;99.90;;;;;;5082323;28;20001;-83
2022/08/10 08:21:01;;;;;;;;;;;21.50;99.90;;;;;;5108810;28;19924;-88
2022/08/10 08:23:27;;;;;;;;;;;21.60;99.90;;;;;;5090400;28;20406;-82
2022/08/10 08:25:54;;;;;;;;;;;21.70;99.90;;;;;;5061334;28;20343;-78
2022/08/10 08:28:20;;;;;;;;;;;21.70;99.90;;;;;;5078665;28;19928;-82
2022/08/10 08:30:46;;;;;;;;;;;21.80;99.90;;;;;;5077503;27;19945;-80
2022/08/10 08:33:14;;;;;;;;;;;21.80;99.90;;;;;;5098568;28;19924;-80
2022/08/10 08:35:40;;;;;;;;;;;21.90;99.90;;;;;;5115729;28;19929;-80
2022/08/10 08:38:06;;;;;;;;;;;21.90;99.90;;;;;;5099001;28;19991;-80
2022/08/10 08:40:32;;;;;;;;;;;21.90;99.90;;;;;;5115639;27;19924;-80
2022/08/10 08:43:17;;;;;;;;;;;21.90;99.90;;;;;;5114388;27;20087;-83
2022/08/10 08:45:43;;;;;;;;;;;22.00;99.90;;;;;;5125354;28;19924;-82
2022/08/10 08:48:17;;;;;;;;;;;22.00;99.90;;;;;;5117012;27;19930;-82
2022/08/10 08:50:52;;;;;;;;;;;22.00;99.90;;;;;;5114121;28;19927;-82
2022/08/10 08:53:33;;;;;;;;;;;22.10;99.90;;;;;;5078100;28;20339;-82
2022/08/10 08:56:23;;;;;;;;;;;22.10;99.90;;;;;;5094827;28;19924;-82
2022/08/10 08:58:49;;;;;;;;;;;22.20;99.90;;;;;;5076844;28;19924;-81
2022/08/10 09:01:27;;;;;;;;;;;22.20;99.90;;;;;;5081674;28;19931;-82
2022/08/10 09:03:52;;;;;;;;;;;22.30;99.90;;;;;;5100193;28;20060;-82
2022/08/10 09:06:37;;;;;;;;;;;22.40;99.90;;;;;;5098287;28;20359;-82
2022/08/10 09:09:17;;;;;;;;;;;22.50;99.90;;;;;;5099723;27;19934;-80
2022/08/10 09:12:18;;;;;;;;;;;22.60;99.90;;;;;;5079289;28;19927;-79
2022/08/10 09:15:04;;;;;;;;;;;22.70;99.90;;;;;;5012602;28;19936;-86
2022/08/10 09:17:30;;;;;;;;;;;22.80;99.90;;;;;;5073450;28;19932;-83
2022/08/10 09:20:07;;;;;;;;;;;22.80;99.90;;;;;;5079978;28;19993;-83
2022/08/10 09:22:39;;;;;;;;;;;22.90;99.90;;;;;;5130008;27;19972;-80
2022/08/10 09:25:23;;;;;;;;;;;23.00;99.90;;;;;;5114645;27;19927;-82
2022/08/10 09:27:53;;;;;;;;;;;23.10;99.90;;;;;;5105670;28;19927;-81
2022/08/10 09:30:26;;;;;;;;;;;23.10;99.90;;;;;;5095324;28;19927;-82
2022/08/10 09:32:59;;;;;;;;;;;23.20;99.90;;;;;;5095562;28;19928;-81
2022/08/10 09:35:34;;;;;;;;;;;23.30;99.90;;;;;;5078535;28;20272;-82
2022/08/10 09:38:09;;;;;;;;;;;23.40;99.90;;;;;;5108999;27;19924;-80
2022/08/10 09:40:38;;;;;;;;;;;23.50;99.90;;;;;;5117925;27;19972;-80
2022/08/10 09:43:26;;;;;;;;;;;23.50;99.90;;;;;;5115995;27;20034;-82
2022/08/10 09:46:12;;;;;;;;;;;23.60;99.90;;;;;;5100557;27;19982;-80
2022/08/10 09:48:44;;;;;;;;;;;23.70;99.90;;;;;;5078187;28;19928;-81
2022/08/10 09:51:23;;;;;;;;;;;23.80;99.90;;;;;;5095784;28;20302;-82
2022/08/10 09:54:03;;;;;;;;;;;23.80;99.90;;;;;;5106050;28;19924;-81
2022/08/10 09:56:31;;;;;;;;;;;23.90;99.90;;;;;;5095064;28;19967;-80
2022/08/10 09:59:09;;;;;;;;;;;23.90;99.90;;;;;;5098164;27;20268;-82
2022/08/10 10:01:53;;;;;;;;;;;24.10;99.90;;;;;;5116031;27;19932;-83
2022/08/10 10:04:19;;;;;;;;;;;24.10;99.90;;;;;;5091974;27;19970;-82
2022/08/10 10:06:55;;;;;;;;;;;24.20;99.90;;;;;;5101284;27;20012;-82
2022/08/10 10:09:29;;;;;;;;;;;24.30;99.90;;;;;;5115262;27;19928;-82
2022/08/10 10:11:54;;;;;;;;;;;24.40;99.90;;;;;;5133933;27;20012;-81
2022/08/10 10:14:32;;;;;;;;;;;24.40;99.90;;;;;;5118044;27;19982;-82
2022/08/10 10:17:15;;;;;;;;;;;24.50;99.90;;;;;;5078574;28;19986;-82
2022/08/10 10:19:47;;;;;;;;;;;24.70;99.90;;;;;;5094704;28;20018;-83
2022/08/10 10:22:25;;;;;;;;;;;24.80;99.90;;;;;;5094686;28;19935;-82
2022/08/10 10:25:11;;;;;;;;;;;24.90;99.90;;;;;;5077217;28;19924;-83
2022/08/10 10:27:39;;;;;;;;;;;25.00;99.90;;;;;;5094444;28;20026;-83
2022/08/10 10:30:11;;;;;;;;;;;25.00;99.90;;;;;;5104376;27;20006;-82
2022/08/10 10:32:50;;;;;;;;;;;25.10;99.90;;;;;;5132108;27;20026;-83
2022/08/10 10:35:22;;;;;;;;;;;25.20;99.90;;;;;;5090838;28;19942;-82
2022/08/10 10:37:50;;;;;;;;;;;25.30;99.90;;;;;;5100063;28;20010;-82
2022/08/10 10:40:16;;;;;;;;;;;25.40;99.90;;;;;;5078782;28;20025;-82
2022/08/10 10:42:42;;;;;;;;;;;25.40;99.90;;;;;;5088959;27;19976;-84
2022/08/10 10:45:07;;;;;;;;;;;25.30;99.90;;;;;;5103549;28;19928;-82
2022/08/10 10:47:45;;;;;;;;;;;25.30;99.90;;;;;;5113684;28;19924;-82
2022/08/10 10:50:12;;;;;;;;;;;25.40;99.90;;;;;;5096534;28;20379;-82
2022/08/10 10:52:38;;;;;;;;;;;25.60;99.90;;;;;;5096127;28;19966;-85
2022/08/10 10:55:27;;;;;;;;;;;25.70;99.90;;;;;;5096836;27;20392;-81
2022/08/10 10:58:03;;;;;;;;;;;25.80;99.90;;;;;;5083008;28;20383;-81
2022/08/10 11:00:43;;;;;;;;;;;25.90;99.90;;;;;;5130693;27;19972;-81
2022/08/10 11:03:18;;;;;;;;;;;25.90;99.90;;;;;;5085428;28;19930;-81
2022/08/10 11:06:02;;;;;;;;;;;26.00;99.90;;;;;;5108157;27;19923;-82
2022/08/10 11:08:34;;;;;;;;;;;26.10;99.90;;;;;;5079573;28;20368;-81
2022/08/10 11:11:02;;;;;;;;;;;26.20;99.90;;;;;;5107751;28;19931;-81
2022/08/10 11:13:49;;;;;;;;;;;26.30;99.90;;;;;;5096358;28;20020;-81
2022/08/10 11:16:30;;;;;;;;;;;26.40;99.90;;;;;;5099324;27;19945;-81
2022/08/10 11:19:14;;;;;;;;;;;26.60;99.90;;;;;;5096519;28;19989;-81
2022/08/10 11:21:43;;;;;;;;;;;26.70;99.90;;;;;;5083808;28;19923;-81
2022/08/10 11:24:11;;;;;;;;;;;26.90;99.90;;;;;;5116190;27;20290;-82
2022/08/10 11:26:45;;;;;;;;;;;27.10;99.90;;;;;;5097847;27;19949;-81
2022/08/10 11:29:27;;;;;;;;;;;27.20;99.90;;;;;;5109606;28;19923;-81
2022/08/10 11:31:55;;;;;;;;;;;27.30;99.90;;;;;;5096405;28;19924;-81
2022/08/10 11:34:26;;;;;;;;;;;27.50;99.90;;;;;;5095923;28;19985;-81
2022/08/10 11:37:15;;;;;;;;;;;27.70;99.90;;;;;;5093877;28;19978;-81
2022/08/10 11:39:53;;;;;;;;;;;27.80;99.90;;;;;;5060807;28;20322;-81
2022/08/10 11:42:30;;;;;;;;;;;28.10;99.90;;;;;;5095122;27;19931;-81
2022/08/10 11:45:00;;;;;;;;;;;28.40;99.90;;;;;;5099577;28;19919;-81
2022/08/10 11:47:31;;;;;;;;;;;28.70;99.90;;;;;;5113202;28;19947;-82
2022/08/10 11:49:56;;;;;;;;;;;28.60;99.90;;;;;;5109772;28;20280;-82
2022/08/10 11:52:27;;;;;;;;;;;28.90;99.90;;;;;;5103546;28;20015;-84
2022/08/10 11:54:53;;;;;;;;;;;29.20;99.90;;;;;;5111470;28;19986;-82
2022/08/10 11:57:19;;;;;;;;;;;29.30;99.90;;;;;;5104036;28;19923;-82
2022/08/10 11:59:57;;;;;;;;;;;29.60;99.90;;;;;;5078787;28;19927;-81
2022/08/10 12:02:40;;;;;;;;;;;29.70;99.90;;;;;;5080723;28;19924;-81
2022/08/10 12:05:06;;;;;;;;;;;29.80;99.90;;;;;;5086577;28;19969;-87
2022/08/10 12:07:32;;;;;;;;;;;30.00;99.90;;;;;;5100100;28;19923;-85
2022/08/10 12:09:59;;;;;;;;;;;30.20;99.90;;;;;;5108255;28;19931;-88
2022/08/10 12:12:28;;;;;;;;;;;30.20;99.90;;;;;;5079548;28;19923;-88
2022/08/10 12:15:07;;;;;;;;;;;30.30;99.90;;;;;;5095898;27;19931;-89
2022/08/10 12:17:36;;;;;;;;;;;30.40;99.90;;;;;;5099403;28;19924;-92
2022/08/10 12:20:06;;;;;;;;;;;30.40;99.90;;;;;;5100502;28;19930;-92
2022/08/10 12:22:41;;;;;;;;;;;30.50;99.90;;;;;;5100270;28;20275;-87
2022/08/10 12:25:15;;;;;;;;;;;30.60;99.90;;;;;;5088614;27;19928;-90
2022/08/10 12:27:43;;;;;;;;;;;30.60;99.90;;;;;;5120322;27;19930;-91
2022/08/10 12:30:19;;;;;;;;;;;30.70;99.90;;;;;;5120668;27;19962;-89
2022/08/10 12:33:00;;;;;;;;;;;30.90;99.90;;;;;;5120060;27;19934;-85
2022/08/10 12:35:45;;;;;;;;;;;31.00;99.90;;;;;;5109831;27;20397;-84
2022/08/10 12:38:20;;;;;;;;;;;31.20;99.90;;;;;;5116149;28;19931;-85
2022/08/10 12:40:54;;;;;;;;;;;31.20;99.90;;;;;;5082718;28;19947;-87
2022/08/10 12:43:22;;;;;;;;;;;31.20;99.90;;;;;;5090366;27;20291;-83
2022/08/10 12:45:57;;;;;;;;;;;31.30;99.90;;;;;;5097600;27;19924;-79
2022/08/10 12:48:32;;;;;;;;;;;31.40;99.70;;;;;;5095870;28;20002;-80
2022/08/10 12:51:00;;;;;;;;;;;31.50;99.90;;;;;;5114347;28;20053;-80
2022/08/10 12:53:32;;;;;;;;;;;31.50;99.60;;;;;;5082035;28;20276;-80
2022/08/10 12:56:00;;;;;;;;;;;31.60;99.70;;;;;;5098401;28;20030;-78
2022/08/10 12:58:27;;;;;;;;;;;31.70;99.40;;;;;;5116032;28;20014;-78
2022/08/10 13:00:53;;;;;;;;;;;31.70;99.10;;;;;;5098730;28;20443;-77
2022/08/10 13:03:22;;;;;;;;;;;31.70;98.70;;;;;;5118051;27;19963;-79
2022/08/10 13:05:49;;;;;;;;;;;31.80;99.20;;;;;;5114006;27;19927;-80
2022/08/10 13:11:04;;;;;;;;;;;31.90;99.00;;;;;;5110156;27;20060;-80
2022/08/10 13:13:32;;;;;;;;;;;32.20;98.50;;;;;;5098907;27;19931;-81
2022/08/10 13:15:58;;;;;;;;;;;32.40;98.60;;;;;;5100588;28;19927;-78
2022/08/10 13:18:27;;;;;;;;;;;32.40;97.70;;;;;;5083856;27;20398;-79
2022/08/10 13:20:54;;;;;;;;;;;32.40;98.20;;;;;;5116708;27;20027;-79
2022/08/10 13:23:22;;;;;;;;;;;32.60;98.50;;;;;;5117508;27;19972;-78
2022/08/10 13:25:49;;;;;;;;;;;32.60;97.70;;;;;;5100777;27;20355;-78
2022/08/10 13:28:16;;;;;;;;;;;32.70;97.70;;;;;;5100172;27;20026;-80
2022/08/10 13:30:44;;;;;;;;;;;32.90;97.00;;;;;;5112942;27;19924;-82
2022/08/10 13:33:10;;;;;;;;;;;33.10;96.40;;;;;;5116347;27;19924;-80
2022/08/10 13:35:36;;;;;;;;;;;32.90;96.10;;;;;;5113548;28;19934;-79
2022/08/10 13:38:03;;;;;;;;;;;33.20;96.80;;;;;;5117978;27;19947;-75
2022/08/10 13:40:30;;;;;;;;;;;33.50;96.20;;;;;;5136207;27;19923;-78
2022/08/10 13:42:57;;;;;;;;;;;33.60;96.70;;;;;;5100864;27;20011;-80
2022/08/10 13:45:23;;;;;;;;;;;33.90;96.60;;;;;;5113617;27;19970;-80
2022/08/10 13:47:50;;;;;;;;;;;34.00;95.60;;;;;;5112719;27;19929;-81
2022/08/10 13:50:26;;;;;;;;;;;34.30;95.20;;;;;;5113814;27;20364;-81
2022/08/10 13:52:54;;;;;;;;;;;34.10;94.80;;;;;;5116577;27;19924;-82
2022/08/10 13:55:21;;;;;;;;;;;34.20;94.30;;;;;;5115246;27;19924;-81
2022/08/10 13:57:50;;;;;;;;;;;34.30;94.40;;;;;;5114321;28;19976;-82
2022/08/10 14:00:16;;;;;;;;;;;34.60;94.10;;;;;;5114534;28;19972;-80
2022/08/10 14:02:44;;;;;;;;;;;34.50;93.60;;;;;;5097891;28;19927;-81
2022/08/10 14:05:10;;;;;;;;;;;34.60;93.90;;;;;;5080756;28;19924;-82
2022/08/10 14:07:37;;;;;;;;;;;34.70;93.60;;;;;;5113386;27;20311;-81
2022/08/10 14:10:08;;;;;;;;;;;34.80;93.20;;;;;;5096914;27;19923;-80
2022/08/10 14:12:40;;;;;;;;;;;35.20;93.00;;;;;;5098550;27;19923;-83
2022/08/10 14:15:08;;;;;;;;;;;35.20;92.10;;;;;;5111302;28;19939;-85
2022/08/10 14:17:36;;;;;;;;;;;35.30;91.40;;;;;;5111381;27;19927;-83
2022/08/10 14:20:03;;;;;;;;;;;35.40;91.60;;;;;;5132406;27;20282;-84
2022/08/10 14:22:28;;;;;;;;;;;35.60;91.80;;;;;;5117570;27;19923;-84
2022/08/10 14:25:03;;;;;;;;;;;35.80;90.80;;;;;;5110435;28;19934;-83
2022/08/10 14:27:30;;;;;;;;;;;36.10;90.20;;;;;;5110043;28;19924;-84
2022/08/10 14:29:56;;;;;;;;;;;36.20;89.20;;;;;;5106473;28;19924;-85
2022/08/10 14:32:23;;;;;;;;;;;36.50;88.80;;;;;;5079738;28;20260;-86
2022/08/10 14:34:50;;;;;;;;;;;36.40;87.40;;;;;;5077715;28;19934;-79
2022/08/10 14:37:17;;;;;;;;;;;36.40;86.50;;;;;;5060686;28;20030;-82